createdAt,value
2023-04-14T00:01:05.006Z,100.00
2023-04-14T00:03:32.157Z,100.00
2023-04-14T00:05:58.908Z,100.00
2023-04-14T00:08:25.567Z,100.00
2023-04-14T00:10:52.228Z,100.00
2023-04-14T00:13:18.947Z,100.00
2023-04-14T00:15:45.963Z,100.00
2023-04-14T00:18:12.612Z,100.00
2023-04-14T00:20:39.335Z,100.00
2023-04-14T00:23:05.991Z,100.00
2023-04-14T00:25:32.661Z,100.00
2023-04-14T00:27:59.334Z,100.00
2023-04-14T00:30:26.024Z,100.00
2023-04-14T00:32:52.766Z,100.00
2023-04-14T00:35:19.500Z,100.00
2023-04-14T00:37:46.181Z,100.00
2023-04-14T00:40:12.958Z,100.00
2023-04-14T00:42:43.440Z,100.00
2023-04-14T00:45:10.524Z,99.08
2023-04-14T00:47:37.741Z,99.77
2023-04-14T00:50:04.855Z,97.78
2023-04-14T00:52:31.981Z,98.87
2023-04-14T00:54:58.853Z,99.57
2023-04-14T00:57:26.016Z,100.00
2023-04-14T00:59:52.889Z,98.84
2023-04-14T01:02:19.765Z,98.93
2023-04-14T01:04:54.209Z,100.00
2023-04-14T01:07:21.927Z,98.96
2023-04-14T01:09:48.621Z,97.92
2023-04-14T01:12:35.532Z,97.45
2023-04-14T01:15:25.598Z,98.14
2023-04-14T01:17:54.826Z,96.82
2023-04-14T01:20:23.272Z,95.55
2023-04-14T01:23:05.313Z,95.23
2023-04-14T01:25:38.445Z,94.90
2023-04-14T01:28:23.262Z,94.73
2023-04-14T01:31:02.219Z,96.40
2023-04-14T01:33:28.909Z,95.78
2023-04-14T01:35:59.312Z,97.00
2023-04-14T01:38:27.601Z,95.57
2023-04-14T01:40:55.484Z,95.44
2023-04-14T01:43:23.236Z,94.93
2023-04-14T01:45:51.108Z,94.67
2023-04-14T01:48:17.812Z,92.29
2023-04-14T01:50:44.471Z,93.50
2023-04-14T01:53:11.933Z,90.86
2023-04-14T01:55:38.626Z,89.99
2023-04-14T01:58:06.023Z,90.87
2023-04-14T02:00:33.540Z,91.39
2023-04-14T02:03:00.429Z,92.90
2023-04-14T02:05:27.287Z,93.09
2023-04-14T02:07:53.925Z,93.02
2023-04-14T02:10:21.023Z,93.71
2023-04-14T02:12:48.414Z,95.53
2023-04-14T02:15:17.428Z,97.21
2023-04-14T02:17:44.751Z,100.00
2023-04-14T02:20:11.616Z,99.95
2023-04-14T02:22:38.315Z,99.25
2023-04-14T02:25:05.124Z,100.00
2023-04-14T02:27:34.411Z,100.00
2023-04-14T02:30:01.146Z,100.00
2023-04-14T02:32:30.245Z,100.00
2023-04-14T02:35:13.953Z,100.00
2023-04-14T02:37:49.318Z,100.00
2023-04-14T02:40:17.900Z,100.00
2023-04-14T02:42:45.998Z,100.00
2023-04-14T02:45:13.495Z,100.00
2023-04-14T02:47:41.820Z,100.00
2023-04-14T02:50:09.611Z,100.00
2023-04-14T02:52:36.368Z,100.00
2023-04-14T02:55:03.064Z,100.00
2023-04-14T02:57:29.974Z,100.00
2023-04-14T02:59:57.474Z,100.00
2023-04-14T03:02:24.200Z,100.00
2023-04-14T03:04:50.908Z,100.00
2023-04-14T03:07:17.587Z,100.00
2023-04-14T03:09:44.764Z,100.00
2023-04-14T03:12:13.002Z,100.00
2023-04-14T03:14:40.129Z,100.00
2023-04-14T03:17:06.771Z,100.00
2023-04-14T03:19:34.044Z,100.00
2023-04-14T03:22:01.106Z,100.00
2023-04-14T03:24:31.104Z,100.00
2023-04-14T03:26:59.826Z,100.00
2023-04-14T03:29:27.466Z,100.00
2023-04-14T03:31:54.917Z,100.00
2023-04-14T03:34:21.551Z,100.00
2023-04-14T03:36:48.940Z,100.00
2023-04-14T03:39:15.845Z,100.00
2023-04-14T03:41:47.860Z,100.00
2023-04-14T03:44:16.434Z,100.00
2023-04-14T03:46:43.159Z,100.00
2023-04-14T03:49:11.641Z,100.00
2023-04-14T03:51:39.225Z,100.00
2023-04-14T03:54:06.293Z,100.00
2023-04-14T03:56:33.516Z,100.00
2023-04-14T03:59:00.727Z,100.00
2023-04-14T04:01:28.068Z,100.00
2023-04-14T04:03:55.026Z,100.00
2023-04-14T04:06:21.884Z,100.00
2023-04-14T04:08:48.955Z,100.00
2023-04-14T04:11:18.971Z,100.00
2023-04-14T04:13:45.851Z,100.00
2023-04-14T04:16:12.494Z,100.00
2023-04-14T04:18:39.228Z,100.00
2023-04-14T04:21:06.272Z,100.00
2023-04-14T04:23:33.335Z,100.00
2023-04-14T04:26:00.038Z,100.00
2023-04-14T04:28:27.042Z,100.00
2023-04-14T04:30:53.724Z,100.00
2023-04-14T04:33:20.582Z,100.00
2023-04-14T04:35:47.281Z,100.00
2023-04-14T04:38:15.116Z,100.00
2023-04-14T04:40:42.016Z,100.00
2023-04-14T04:43:08.699Z,100.00
2023-04-14T04:45:44.610Z,100.00
2023-04-14T04:48:11.376Z,100.00
2023-04-14T04:50:38.099Z,100.00
2023-04-14T04:53:04.852Z,100.00
2023-04-14T04:55:31.604Z,100.00
2023-04-14T04:57:58.311Z,100.00
2023-04-14T05:00:26.378Z,100.00
2023-04-14T05:02:53.234Z,100.00
2023-04-14T05:05:19.979Z,100.00
2023-04-14T05:07:47.051Z,100.00
2023-04-14T05:10:13.702Z,100.00
2023-04-14T05:12:40.496Z,100.00
2023-04-14T05:15:08.732Z,100.00
2023-04-14T05:17:35.487Z,100.00
2023-04-14T05:20:02.807Z,100.00
2023-04-14T05:22:29.674Z,100.00
2023-04-14T05:24:56.340Z,100.00
2023-04-14T05:27:23.078Z,100.00
2023-04-14T05:29:49.730Z,100.00
2023-04-14T05:32:16.481Z,100.00
2023-04-14T05:34:43.162Z,100.00
2023-04-14T05:37:09.900Z,100.00
2023-04-14T05:39:36.582Z,100.00
2023-04-14T05:42:03.241Z,100.00
2023-04-14T05:44:29.951Z,100.00
2023-04-14T05:46:56.766Z,100.00
2023-04-14T05:51:27.876Z,100.00
2023-04-14T05:53:55.213Z,100.00
2023-04-14T05:56:22.076Z,100.00
2023-04-14T05:58:48.973Z,100.00
2023-04-14T06:01:15.879Z,100.00
2023-04-14T06:03:42.897Z,100.00
2023-04-14T06:06:10.013Z,100.00
2023-04-14T06:08:37.948Z,100.00
2023-04-14T06:11:04.955Z,100.00
2023-04-14T06:13:34.839Z,100.00
2023-04-14T06:16:03.172Z,100.00
2023-04-14T06:18:30.212Z,100.00
2023-04-14T06:20:57.063Z,100.00
2023-04-14T06:23:24.790Z,100.00
2023-04-14T06:25:52.499Z,100.00
2023-04-14T06:28:24.024Z,100.00
2023-04-14T06:30:51.185Z,100.00
2023-04-14T06:33:18.156Z,100.00
2023-04-14T06:35:45.296Z,100.00
2023-04-14T06:38:12.162Z,100.00
2023-04-14T06:40:38.825Z,100.00
2023-04-14T06:43:07.820Z,100.00
2023-04-14T06:45:34.733Z,100.00
2023-04-14T06:48:01.656Z,100.00
2023-04-14T06:50:28.657Z,100.00
2023-04-14T06:52:55.669Z,100.00
2023-04-14T06:55:22.536Z,100.00
2023-04-14T06:57:49.401Z,100.00
2023-04-14T07:00:16.658Z,100.00
2023-04-14T07:02:43.876Z,100.00
2023-04-14T07:05:10.867Z,100.00
2023-04-14T07:07:40.178Z,100.00
2023-04-14T07:10:07.541Z,100.00
2023-04-14T07:12:34.472Z,100.00
2023-04-14T07:15:01.134Z,100.00
2023-04-14T07:17:28.111Z,100.00
2023-04-14T07:19:55.091Z,100.00
2023-04-14T07:22:21.934Z,100.00
2023-04-14T07:24:48.644Z,100.00
2023-04-14T07:27:15.955Z,100.00
2023-04-14T07:29:43.239Z,100.00
2023-04-14T07:32:10.256Z,100.00
2023-04-14T07:34:37.280Z,100.00
2023-04-14T07:37:04.228Z,100.00
2023-04-14T07:39:31.415Z,100.00
2023-04-14T07:41:58.933Z,100.00
2023-04-14T07:44:26.468Z,100.00
2023-04-14T07:46:53.636Z,100.00
2023-04-14T07:49:20.548Z,100.00
2023-04-14T07:51:47.710Z,100.00
2023-04-14T07:54:15.298Z,100.00
2023-04-14T07:56:42.245Z,100.00
2023-04-14T07:59:09.119Z,100.00
2023-04-14T08:01:36.038Z,100.00
2023-04-14T08:04:03.192Z,100.00
2023-04-14T08:06:30.271Z,100.00
2023-04-14T08:08:57.176Z,100.00
2023-04-14T08:11:24.156Z,100.00
2023-04-14T08:13:53.095Z,100.00
2023-04-14T08:16:20.053Z,100.00
2023-04-14T08:18:47.441Z,100.00
2023-04-14T08:21:14.410Z,100.00
2023-04-14T08:23:41.396Z,100.00
2023-04-14T08:26:08.363Z,100.00
2023-04-14T08:28:35.370Z,100.00
2023-04-14T08:31:02.226Z,100.00
2023-04-14T08:33:29.218Z,100.00
2023-04-14T08:36:00.322Z,100.00
2023-04-14T08:38:28.956Z,100.00
2023-04-14T08:40:56.999Z,100.00
2023-04-14T08:43:23.966Z,100.00
2023-04-14T08:45:51.991Z,100.00
2023-04-14T08:48:21.643Z,100.00
2023-04-14T08:51:24.070Z,100.00
2023-04-14T08:53:52.878Z,100.00
2023-04-14T08:56:21.642Z,100.00
2023-04-14T08:58:48.599Z,100.00
2023-04-14T09:01:15.924Z,100.00
2023-04-14T09:03:44.197Z,100.00
2023-04-14T09:06:11.618Z,100.00
2023-04-14T09:08:38.510Z,100.00
2023-04-14T09:11:05.526Z,100.00
2023-04-14T09:13:32.467Z,100.00
2023-04-14T09:16:00.287Z,100.00
2023-04-14T09:18:28.320Z,100.00
2023-04-14T09:21:34.344Z,100.00
2023-04-14T09:23:42.960Z,100.00
2023-04-14T09:26:10.727Z,99.58
2023-04-14T09:28:38.076Z,99.08
2023-04-14T09:31:05.437Z,98.25
2023-04-14T09:33:32.730Z,96.75
2023-04-14T09:35:59.700Z,97.58
2023-04-14T09:38:39.300Z,97.47
2023-04-14T09:41:06.890Z,96.50
2023-04-14T09:43:34.258Z,97.07
2023-04-14T09:46:08.897Z,98.21
2023-04-14T09:48:37.788Z,100.00
2023-04-14T09:51:06.848Z,100.00
2023-04-14T09:53:35.840Z,100.00
2023-04-14T09:56:06.157Z,100.00
2023-04-14T09:58:37.944Z,100.00
2023-04-14T10:01:13.207Z,100.00
2023-04-14T10:03:42.469Z,100.00
2023-04-14T10:06:22.890Z,100.00
2023-04-14T10:08:57.250Z,100.00
2023-04-14T10:11:29.912Z,100.00
2023-04-14T10:14:06.837Z,100.00
2023-04-14T10:16:34.211Z,100.00
2023-04-14T10:19:02.317Z,100.00
2023-04-14T10:21:29.751Z,100.00
2023-04-14T10:23:58.038Z,100.00
2023-04-14T10:26:25.584Z,100.00
2023-04-14T10:28:54.649Z,100.00
2023-04-14T10:31:25.593Z,100.00
2023-04-14T10:33:53.237Z,100.00
2023-04-14T10:36:24.999Z,100.00
2023-04-14T10:39:02.211Z,100.00
2023-04-14T10:41:38.228Z,100.00
2023-04-14T10:44:05.149Z,100.00
2023-04-14T10:46:44.562Z,100.00
2023-04-14T10:49:14.397Z,100.00
2023-04-14T10:51:41.999Z,100.00
2023-04-14T10:54:19.460Z,100.00
2023-04-14T10:57:09.862Z,99.65
2023-04-14T10:59:39.877Z,100.00
2023-04-14T11:02:22.529Z,100.00
2023-04-14T11:05:06.977Z,100.00
2023-04-14T11:07:51.910Z,100.00
2023-04-14T11:10:21.998Z,100.00
2023-04-14T11:12:51.429Z,100.00
2023-04-14T11:15:18.360Z,100.00
2023-04-14T11:17:45.574Z,100.00
2023-04-14T11:20:19.590Z,100.00
2023-04-14T11:22:48.261Z,100.00
2023-04-14T11:25:16.816Z,100.00
2023-04-14T11:27:44.530Z,100.00
2023-04-14T11:30:18.949Z,100.00
2023-04-14T11:32:54.075Z,100.00
2023-04-14T11:35:24.111Z,98.97
2023-04-14T11:37:55.955Z,98.41
2023-04-14T11:40:23.684Z,99.53
2023-04-14T11:42:55.247Z,100.00
2023-04-14T11:45:22.168Z,100.00
2023-04-14T11:47:59.275Z,99.83
2023-04-14T11:50:27.509Z,100.00
2023-04-14T11:52:55.537Z,100.00
2023-04-14T11:55:25.258Z,100.00
2023-04-14T11:57:52.177Z,100.00
2023-04-14T12:00:19.204Z,100.00
2023-04-14T12:02:46.726Z,100.00
2023-04-14T12:05:20.110Z,100.00
2023-04-14T12:07:48.719Z,100.00
2023-04-14T12:10:15.857Z,100.00
2023-04-14T12:12:42.842Z,100.00
2023-04-14T12:15:10.179Z,100.00
2023-04-14T12:17:37.436Z,100.00
2023-04-14T12:20:05.665Z,100.00
2023-04-14T12:22:32.641Z,100.00
2023-04-14T12:24:59.712Z,100.00
2023-04-14T12:27:27.698Z,100.00
2023-04-14T12:29:54.609Z,100.00
2023-04-14T12:32:22.958Z,100.00
2023-04-14T12:34:58.010Z,100.00
2023-04-14T12:37:28.686Z,100.00
2023-04-14T12:40:01.020Z,100.00
2023-04-14T12:42:30.496Z,100.00
2023-04-14T12:45:02.340Z,100.00
2023-04-14T12:47:34.301Z,100.00
2023-04-14T12:50:03.324Z,100.00
2023-04-14T12:52:38.294Z,100.00
2023-04-14T12:55:07.159Z,100.00
2023-04-14T12:57:35.009Z,100.00
2023-04-14T13:00:02.279Z,100.00
2023-04-14T13:02:30.304Z,100.00
2023-04-14T13:04:57.840Z,100.00
2023-04-14T13:07:24.788Z,100.00
2023-04-14T13:09:53.196Z,100.00
2023-04-14T13:12:20.065Z,100.00
2023-04-14T13:14:46.915Z,100.00
2023-04-14T13:17:13.604Z,100.00
2023-04-14T13:19:40.840Z,100.00
2023-04-14T13:22:07.702Z,100.00
2023-04-14T13:24:34.566Z,100.00
2023-04-14T13:27:01.795Z,100.00
2023-04-14T13:29:28.868Z,100.00
2023-04-14T13:31:55.791Z,100.00
2023-04-14T13:34:22.795Z,100.00
2023-04-14T13:36:49.694Z,100.00
2023-04-14T13:39:16.703Z,100.00
2023-04-14T13:41:43.674Z,100.00
2023-04-14T13:44:10.538Z,100.00
2023-04-14T13:46:41.198Z,100.00
2023-04-14T13:49:08.461Z,100.00
2023-04-14T13:51:35.328Z,100.00
2023-04-14T13:54:03.411Z,100.00
2023-04-14T13:56:30.300Z,100.00
2023-04-14T13:58:57.243Z,100.00
2023-04-14T14:01:24.254Z,100.00
2023-04-14T14:03:51.390Z,100.00
2023-04-14T14:06:19.632Z,100.00
2023-04-14T14:08:46.529Z,100.00
2023-04-14T14:11:14.251Z,100.00
2023-04-14T14:13:41.178Z,100.00
2023-04-14T14:16:09.219Z,100.00
2023-04-14T14:18:39.998Z,100.00
2023-04-14T14:21:06.892Z,100.00
2023-04-14T14:23:33.778Z,100.00
2023-04-14T14:26:00.985Z,100.00
2023-04-14T14:28:27.895Z,100.00
2023-04-14T14:30:54.989Z,100.00
2023-04-14T14:33:21.933Z,100.00
2023-04-14T14:35:49.102Z,100.00
2023-04-14T14:38:16.104Z,100.00
2023-04-14T14:40:43.041Z,100.00
2023-04-14T14:43:09.890Z,100.00
2023-04-14T14:45:36.685Z,100.00
2023-04-14T14:48:04.561Z,100.00
2023-04-14T14:50:31.481Z,100.00
2023-04-14T14:52:58.286Z,100.00
2023-04-14T14:55:24.993Z,100.00
2023-04-14T14:57:51.856Z,100.00
2023-04-14T15:00:19.067Z,100.00
2023-04-14T15:02:46.164Z,100.00
2023-04-14T15:05:13.208Z,100.00
2023-04-14T15:07:40.063Z,100.00
2023-04-14T15:10:07.484Z,100.00
2023-04-14T15:12:34.400Z,96.80
2023-04-14T15:15:01.411Z,95.06
2023-04-14T15:17:28.595Z,93.00
2023-04-14T15:19:55.485Z,91.32
2023-04-14T15:22:22.160Z,90.84
2023-04-14T15:24:49.097Z,90.66
2023-04-14T15:27:15.979Z,89.47
2023-04-14T15:29:42.849Z,90.91
2023-04-14T15:32:09.753Z,89.20
2023-04-14T15:34:36.721Z,88.17
2023-04-14T15:37:03.648Z,88.42
2023-04-14T15:39:30.526Z,85.55
2023-04-14T15:41:58.563Z,84.62
2023-04-14T15:44:26.339Z,82.66
2023-04-14T15:46:53.734Z,81.37
2023-04-14T15:49:22.654Z,82.56
2023-04-14T15:51:50.591Z,83.29
2023-04-14T15:54:17.478Z,82.96
2023-04-14T15:56:44.434Z,82.60
2023-04-14T15:59:11.374Z,80.89
2023-04-14T16:01:38.293Z,87.03
2023-04-14T16:04:05.534Z,85.44
2023-04-14T16:06:32.745Z,89.01
2023-04-14T16:08:59.827Z,86.78
2023-04-14T16:11:27.013Z,83.97
2023-04-14T16:13:54.492Z,84.96
2023-04-14T16:16:21.948Z,86.89
2023-04-14T16:18:49.768Z,84.88
2023-04-14T16:21:16.973Z,85.99
2023-04-14T16:23:43.977Z,83.89
2023-04-14T16:26:10.882Z,83.55
2023-04-14T16:28:37.805Z,80.65
2023-04-14T16:31:04.942Z,80.61
2023-04-14T16:33:32.854Z,81.89
2023-04-14T16:36:06.614Z,79.99
2023-04-14T16:38:33.751Z,80.58
2023-04-14T16:41:01.565Z,79.29
2023-04-14T16:43:28.782Z,79.68
2023-04-14T16:46:05.781Z,82.02
2023-04-14T16:48:33.442Z,82.18
2023-04-14T16:51:08.488Z,81.44
2023-04-14T16:53:36.704Z,81.08
2023-04-14T16:56:10.539Z,82.91
2023-04-14T16:58:38.377Z,81.78
2023-04-14T17:01:06.427Z,83.19
2023-04-14T17:03:34.257Z,83.39
2023-04-14T17:06:01.484Z,82.66
2023-04-14T17:08:28.532Z,83.14
2023-04-14T17:10:55.521Z,83.22
2023-04-14T17:13:22.383Z,81.71
2023-04-14T17:15:58.797Z,79.47
2023-04-14T17:18:33.690Z,77.69
2023-04-14T17:21:00.559Z,76.75
2023-04-14T17:23:27.516Z,75.30
2023-04-14T17:25:55.528Z,75.44
2023-04-14T17:28:22.961Z,72.84
2023-04-14T17:30:50.353Z,73.33
2023-04-14T17:33:17.574Z,73.06
2023-04-14T17:35:44.550Z,73.70
2023-04-14T17:38:11.498Z,70.96
2023-04-14T17:40:38.379Z,73.37
2023-04-14T17:43:05.327Z,71.70
2023-04-14T17:45:33.904Z,70.83
2023-04-14T17:48:00.889Z,66.88
2023-04-14T17:53:03.129Z,65.24
2023-04-14T17:55:30.030Z,66.48
2023-04-14T17:57:57.854Z,67.45
2023-04-14T18:00:24.784Z,67.82
2023-04-14T18:02:52.299Z,66.99
2023-04-14T18:05:19.214Z,64.84
2023-04-14T18:07:47.059Z,66.14
2023-04-14T18:10:13.891Z,66.17
2023-04-14T18:12:40.826Z,64.48
2023-04-14T18:15:08.130Z,65.94
2023-04-14T18:17:36.634Z,66.19
2023-04-14T18:20:04.376Z,68.65
2023-04-14T18:22:31.749Z,71.75
2023-04-14T18:24:58.658Z,70.64
2023-04-14T18:29:56.430Z,68.29
2023-04-14T18:32:25.508Z,67.65
2023-04-14T18:34:52.793Z,69.15
2023-04-14T18:37:19.791Z,69.06
2023-04-14T18:39:46.700Z,72.79
2023-04-14T18:42:14.080Z,71.43
2023-04-14T18:44:41.064Z,76.11
2023-04-14T18:47:07.941Z,75.00
2023-04-14T18:49:35.212Z,76.35
2023-04-14T18:52:02.561Z,74.27
2023-04-14T18:54:29.736Z,76.05
2023-04-14T18:56:56.648Z,76.93
2023-04-14T18:59:24.175Z,76.17
2023-04-14T19:01:51.184Z,77.77
2023-04-14T19:04:18.146Z,74.58
2023-04-14T19:06:45.120Z,75.98
2023-04-14T19:09:11.979Z,79.34
2023-04-14T19:11:41.633Z,80.44
2023-04-14T19:14:08.545Z,80.29
2023-04-14T19:16:35.587Z,76.21
2023-04-14T19:19:02.711Z,77.83
2023-04-14T19:21:32.607Z,76.91
2023-04-14T19:23:59.483Z,78.43
2023-04-14T19:26:26.402Z,76.34
2023-04-14T19:28:54.027Z,76.23
2023-04-14T19:31:21.656Z,73.46
2023-04-14T19:33:49.308Z,74.47
2023-04-14T19:36:17.536Z,76.86
2023-04-14T19:38:44.529Z,76.34
2023-04-14T19:41:11.547Z,76.07
2023-04-14T19:43:38.453Z,78.09
2023-04-14T19:46:05.592Z,74.19
2023-04-14T19:48:35.572Z,74.91
2023-04-14T19:51:03.585Z,73.60
2023-04-14T19:53:30.846Z,73.79
2023-04-14T19:55:58.672Z,72.56
2023-04-14T19:58:26.998Z,75.52
2023-04-14T20:00:59.057Z,75.30
2023-04-14T20:03:26.572Z,68.93
2023-04-14T20:05:55.850Z,70.95
2023-04-14T20:08:23.986Z,72.50
2023-04-14T20:10:52.756Z,70.04
2023-04-14T20:13:24.240Z,70.27
2023-04-14T20:15:54.255Z,69.23
2023-04-14T20:18:22.865Z,68.03
2023-04-14T20:20:50.317Z,63.18
2023-04-14T20:23:17.351Z,63.87
2023-04-14T20:25:45.757Z,66.80
2023-04-14T20:28:12.887Z,66.58
2023-04-14T20:30:40.019Z,67.61
2023-04-14T20:33:07.086Z,69.98
2023-04-14T20:35:36.212Z,70.15
2023-04-14T20:38:03.275Z,71.89
2023-04-14T20:40:30.432Z,72.96
2023-04-14T20:42:57.430Z,76.49
2023-04-14T20:45:24.837Z,75.84
2023-04-14T20:47:51.925Z,80.27
2023-04-14T20:50:19.008Z,79.25
2023-04-14T20:52:46.674Z,81.16
2023-04-14T20:55:14.433Z,82.15
2023-04-14T20:57:42.082Z,79.72
2023-04-14T21:00:10.461Z,81.53
2023-04-14T21:02:37.831Z,86.87
2023-04-14T21:05:06.011Z,82.77
2023-04-14T21:07:35.150Z,81.07
2023-04-14T21:10:02.370Z,82.74
2023-04-14T21:12:35.598Z,86.40
2023-04-14T21:15:45.861Z,87.88
2023-04-14T21:17:52.238Z,88.04
2023-04-14T21:20:19.163Z,88.98
2023-04-14T21:22:46.072Z,88.91
2023-04-14T21:25:12.983Z,93.43
2023-04-14T21:27:40.052Z,92.94
2023-04-14T21:30:09.240Z,93.33
2023-04-14T21:32:36.232Z,93.02
2023-04-14T21:35:03.235Z,89.38
2023-04-14T21:37:30.155Z,89.10
2023-04-14T21:39:59.027Z,88.62
2023-04-14T21:42:26.711Z,90.64
2023-04-14T21:44:54.328Z,90.77
2023-04-14T21:47:21.250Z,88.82
2023-04-14T21:49:48.184Z,87.83
2023-04-14T21:52:15.031Z,91.25
2023-04-14T21:54:44.427Z,90.60
2023-04-14T21:57:11.698Z,90.58
2023-04-14T21:59:38.826Z,93.19
2023-04-14T22:02:05.802Z,90.40
2023-04-14T22:04:36.597Z,90.12
2023-04-14T22:07:05.406Z,91.80
2023-04-14T22:09:33.465Z,87.98
2023-04-14T22:12:00.712Z,87.42
2023-04-14T22:14:27.889Z,90.10
2023-04-14T22:16:55.253Z,92.34
2023-04-14T22:19:22.146Z,94.30
2023-04-14T22:21:49.990Z,97.66
2023-04-14T22:24:16.863Z,95.31
2023-04-14T22:26:43.751Z,96.08
2023-04-14T22:29:11.625Z,98.22
2023-04-14T22:31:38.693Z,93.02
2023-04-14T22:34:05.583Z,92.14
2023-04-14T22:36:32.471Z,93.69
2023-04-14T22:38:59.573Z,91.71
2023-04-14T22:41:27.251Z,90.54
2023-04-14T22:43:54.230Z,91.89
2023-04-14T22:46:21.128Z,90.15
2023-04-14T22:48:48.080Z,94.55
2023-04-14T22:51:15.129Z,89.50
2023-04-14T22:53:42.013Z,92.72
2023-04-14T22:56:08.963Z,93.93
2023-04-14T22:58:39.420Z,90.57
2023-04-14T23:01:21.432Z,91.32
2023-04-14T23:03:52.586Z,88.38
2023-04-14T23:06:20.358Z,91.51
2023-04-14T23:08:51.231Z,90.98
2023-04-14T23:11:21.067Z,87.73
2023-04-14T23:13:48.886Z,86.29
2023-04-14T23:16:20.060Z,90.77
2023-04-14T23:18:52.527Z,87.88
2023-04-14T23:21:22.420Z,86.55
2023-04-14T23:23:50.436Z,87.73
2023-04-14T23:26:19.671Z,89.67
2023-04-14T23:28:47.087Z,89.78
2023-04-14T23:31:14.472Z,88.41
2023-04-14T23:33:41.388Z,92.03
2023-04-14T23:36:08.409Z,85.41
2023-04-14T23:38:35.517Z,90.30
2023-04-14T23:41:02.514Z,93.66
2023-04-14T23:43:29.533Z,93.58
2023-04-14T23:45:56.821Z,89.95
2023-04-14T23:48:23.781Z,92.14
2023-04-14T23:50:59.208Z,89.78
2023-04-14T23:53:28.363Z,86.37
2023-04-14T23:55:55.332Z,83.10
2023-04-14T23:58:26.714Z,82.81
